Terminal Aerodrome Forecast
Issued by NWS

Home | Current Version | Previous Version | Text Only | Print | Product List | Glossary On
Versions: 1 2 3 4 5 6 7 8 9 10 11 12 13 14 15 16 17 18 19 20 21 22 23 24 25 26 27 28 29 30 31 32 33 34 35 36 37 38 39 40 41 42 43 44 45
000
FTAK31 PAFA 272340
TAFAQT
TAF
PAQT 272340Z 2800/2824 03006KT P6SM SCT007
     FM280800 06010KT P6SM BKN007
     FM281100 06012KT 1/2SM FZFG VV002
     FM282000 06018KT 3SM BR BKN007=

USA.gov is the U.S. government's official web portal to all federal, state and local government web resources and services.